Time;durP1;ratioP1;P1;durP2;ratioP2;P2;SDS_P1;SDS_P2;PMS_P1;PMS_P2;Temp;Humidity;BMP_temperature;BMP_pressure;BME280_temperature;BME280_humidity;BME280_pressure;Samples;Min_cycle;Max_cycle;Signal;HPM_P1;HPM_P2
2022/11/05 05:32:15;;;;;;;6.85;3.45;;;10.30;79.30;;;;;;5122791;23;20113;-77
2022/11/05 05:34:40;;;;;;;7.50;3.22;;;10.40;79.50;;;;;;5015410;28;20017;-76
2022/11/05 05:37:06;;;;;;;5.13;3.33;;;10.40;79.20;;;;;;5016026;28;20032;-76
2022/11/05 05:39:31;;;;;;;5.38;2.95;;;10.40;79.30;;;;;;4997606;28;20018;-76
2022/11/05 05:41:57;;;;;;;8.40;3.50;;;10.40;79.50;;;;;;5015339;28;20057;-77
2022/11/05 05:44:23;;;;;;;3.63;2.97;;;10.40;79.30;;;;;;5015946;28;20033;-76
2022/11/05 05:46:49;;;;;;;7.50;3.88;;;10.40;79.40;;;;;;5011669;28;20026;-77
2022/11/05 05:49:14;;;;;;;4.80;3.30;;;10.40;79.40;;;;;;4996127;28;20037;-76
2022/11/05 05:51:40;;;;;;;8.25;3.83;;;10.40;79.20;;;;;;4996053;28;20029;-76
2022/11/05 05:54:06;;;;;;;5.75;3.60;;;10.40;79.00;;;;;;4997276;28;20573;-76
2022/11/05 05:56:31;;;;;;;5.55;3.13;;;10.30;79.30;;;;;;5015749;28;20026;-76
2022/11/05 05:58:57;;;;;;;6.40;2.92;;;10.30;79.60;;;;;;5014533;28;20069;-77
2022/11/05 06:01:23;;;;;;;7.82;3.13;;;10.40;79.50;;;;;;5015376;28;20030;-76
2022/11/05 06:03:49;;;;;;;8.30;2.95;;;10.40;79.40;;;;;;5012241;28;21251;-77
2022/11/05 06:06:18;;;;;;;8.32;2.88;;;10.50;79.20;;;;;;5015090;28;20053;-77
2022/11/05 06:08:44;;;;;;;4.50;2.53;;;10.50;79.50;;;;;;4997794;28;20045;-77
2022/11/05 06:11:10;;;;;;;6.55;2.92;;;10.50;79.50;;;;;;5015072;28;20034;-77
2022/11/05 06:13:36;;;;;;;8.65;2.95;;;10.40;79.40;;;;;;5012643;28;20030;-77
2022/11/05 06:16:08;;;;;;;3.75;2.78;;;10.50;79.50;;;;;;5015977;28;20529;-77
2022/11/05 06:18:35;;;;;;;5.80;2.75;;;10.40;79.40;;;;;;5015805;28;20018;-77
2022/11/05 06:21:05;;;;;;;8.50;3.28;;;10.40;79.50;;;;;;5004671;28;20022;-77
2022/11/05 06:23:32;;;;;;;4.97;3.13;;;10.30;79.80;;;;;;5015880;28;20080;-77
2022/11/05 06:26:00;;;;;;;4.45;2.65;;;10.40;79.80;;;;;;5015846;28;20026;-77
2022/11/05 06:28:26;;;;;;;8.05;3.47;;;10.50;79.60;;;;;;5015366;28;20115;-77
2022/11/05 06:30:51;;;;;;;5.88;3.28;;;10.40;79.40;;;;;;5015832;28;20080;-77
2022/11/05 06:33:17;;;;;;;6.28;3.05;;;10.40;79.50;;;;;;5007068;28;20044;-77
2022/11/05 06:35:42;;;;;;;10.23;3.45;;;10.50;79.60;;;;;;4995914;28;20591;-77
2022/11/05 06:38:08;;;;;;;6.68;3.13;;;10.40;79.60;;;;;;5014170;28;20037;-76
2022/11/05 06:40:34;;;;;;;6.00;3.40;;;10.40;79.70;;;;;;5011120;28;20027;-80
2022/11/05 06:42:59;;;;;;;4.40;2.85;;;10.40;79.50;;;;;;4996008;28;20037;-76
2022/11/05 06:45:25;;;;;;;8.77;3.05;;;10.50;79.70;;;;;;4996153;28;20081;-77
2022/11/05 06:47:58;;;;;;;7.93;3.05;;;10.50;79.60;;;;;;4978943;28;20471;-77
2022/11/05 06:50:25;;;;;;;8.98;3.47;;;10.50;79.60;;;;;;5007819;28;20523;-78
2022/11/05 06:52:57;;;;;;;5.47;3.33;;;10.50;79.50;;;;;;4995707;28;20041;-78
2022/11/05 06:55:24;;;;;;;6.45;3.10;;;10.50;79.50;;;;;;4995821;28;20022;-78
2022/11/05 06:57:49;;;;;;;6.13;2.58;;;10.60;79.70;;;;;;4993789;28;20522;-77
2022/11/05 07:00:16;;;;;;;7.00;3.33;;;10.60;79.40;;;;;;5014397;28;20073;-80
2022/11/05 07:02:41;;;;;;;4.60;2.80;;;10.60;79.50;;;;;;4997605;28;20101;-79
2022/11/05 07:05:10;;;;;;;7.28;3.38;;;10.50;79.40;;;;;;5008094;28;20033;-80
2022/11/05 07:07:36;;;;;;;7.25;3.53;;;10.60;79.30;;;;;;5015212;28;20117;-83
2022/11/05 07:10:06;;;;;;;5.78;3.25;;;10.50;79.40;;;;;;5014749;28;20041;-85
2022/11/05 07:12:32;;;;;;;8.77;3.30;;;10.50;79.50;;;;;;4985000;28;20030;-81
2022/11/05 07:14:57;;;;;;;7.47;3.25;;;10.50;79.60;;;;;;5016457;28;20030;-85
2022/11/05 07:17:23;;;;;;;8.48;3.58;;;10.60;79.60;;;;;;5011273;28;20030;-79
2022/11/05 07:19:49;;;;;;;5.80;3.42;;;10.50;79.60;;;;;;5012169;28;20057;-77
2022/11/05 07:22:14;;;;;;;5.50;2.60;;;10.50;79.70;;;;;;5013760;28;20061;-77
2022/11/05 07:24:41;;;;;;;6.50;2.97;;;10.50;79.40;;;;;;5014847;28;20113;-77
2022/11/05 07:27:07;;;;;;;4.38;2.58;;;10.50;79.80;;;;;;5014754;28;21243;-77
2022/11/05 07:29:32;;;;;;;4.90;3.30;;;10.50;79.70;;;;;;5015466;28;20026;-80
2022/11/05 07:31:58;;;;;;;4.47;2.60;;;10.40;80.00;;;;;;4991673;28;20448;-86
2022/11/05 07:34:24;;;;;;;6.38;3.05;;;10.40;80.40;;;;;;5015125;28;20030;-84
2022/11/05 07:36:49;;;;;;;3.33;2.55;;;10.40;80.10;;;;;;5012101;28;20130;-83
2022/11/05 07:39:15;;;;;;;3.35;2.47;;;10.50;80.10;;;;;;5012560;28;20037;-85
2022/11/05 07:41:41;;;;;;;4.68;3.20;;;10.50;80.00;;;;;;4993314;28;20067;-80
2022/11/05 07:44:07;;;;;;;4.00;2.53;;;10.50;79.90;;;;;;5013763;28;20025;-83
2022/11/05 07:46:32;;;;;;;3.70;2.80;;;10.60;79.90;;;;;;5010082;28;20034;-81
2022/11/05 07:48:58;;;;;;;6.38;2.70;;;10.70;79.70;;;;;;5014109;28;20037;-81
2022/11/05 07:51:23;;;;;;;3.60;2.40;;;10.70;79.80;;;;;;5017063;28;20042;-80
2022/11/05 07:53:49;;;;;;;6.40;2.45;;;10.70;79.40;;;;;;4999250;28;20030;-78
2022/11/05 07:56:15;;;;;;;7.07;2.95;;;10.70;79.50;;;;;;5016252;28;20026;-78
2022/11/05 07:58:40;;;;;;;4.90;3.00;;;10.80;79.50;;;;;;4985492;28;20034;-77
2022/11/05 08:01:06;;;;;;;5.13;2.78;;;10.80;79.20;;;;;;4997190;28;20421;-80
2022/11/05 08:03:32;;;;;;;7.10;3.38;;;10.90;79.20;;;;;;4998253;28;20105;-78
2022/11/05 08:05:58;;;;;;;4.55;2.63;;;10.90;79.20;;;;;;4990411;28;20026;-79
2022/11/05 08:08:24;;;;;;;6.07;3.17;;;10.90;79.00;;;;;;5017856;28;20105;-79
2022/11/05 08:10:51;;;;;;;7.72;3.03;;;11.00;78.90;;;;;;5011836;28;20096;-75
2022/11/05 08:13:17;;;;;;;3.47;2.42;;;11.00;78.80;;;;;;4996514;28;20030;-84
2022/11/05 08:15:43;;;;;;;8.98;2.70;;;11.10;78.70;;;;;;4999837;28;20032;-85
2022/11/05 08:18:14;;;;;;;6.57;2.70;;;11.10;78.50;;;;;;5017954;28;20337;-83
2022/11/05 08:20:42;;;;;;;4.47;2.47;;;11.20;78.60;;;;;;5017901;28;20476;-81
2022/11/05 08:23:07;;;;;;;5.22;2.53;;;11.20;78.60;;;;;;5011828;28;20027;-79
2022/11/05 08:25:33;;;;;;;3.70;2.20;;;11.20;78.30;;;;;;4998143;28;20866;-82
2022/11/05 08:28:04;;;;;;;7.55;2.47;;;11.30;78.30;;;;;;4988555;28;20121;-79
2022/11/05 08:30:30;;;;;;;8.05;2.40;;;11.20;78.30;;;;;;5013805;28;20050;-79
2022/11/05 08:33:02;;;;;;;7.50;2.50;;;11.20;78.20;;;;;;4984477;28;20477;-79
2022/11/05 08:35:28;;;;;;;4.63;2.72;;;11.20;78.30;;;;;;4993180;28;20033;-79
2022/11/05 08:38:02;;;;;;;7.28;2.35;;;11.20;78.20;;;;;;5013731;28;20030;-79
2022/11/05 08:40:29;;;;;;;4.43;2.40;;;11.20;78.20;;;;;;5004162;28;20058;-79
2022/11/05 08:42:59;;;;;;;5.72;2.05;;;11.30;78.50;;;;;;4998554;28;20022;-80
2022/11/05 08:45:26;;;;;;;3.78;2.10;;;11.30;78.40;;;;;;5011417;28;20535;-80
2022/11/05 08:47:59;;;;;;;4.28;2.50;;;11.40;78.30;;;;;;5016512;28;20034;-79
2022/11/05 08:50:24;;;;;;;9.25;2.42;;;11.40;77.90;;;;;;5016183;28;20382;-80
2022/11/05 08:52:50;;;;;;;5.10;2.50;;;11.40;78.10;;;;;;5010596;28;20052;-80
2022/11/05 08:55:17;;;;;;;7.03;2.70;;;11.50;78.20;;;;;;5006176;28;20067;-79
2022/11/05 08:57:45;;;;;;;5.38;2.60;;;11.50;78.20;;;;;;4999263;28;20116;-79
2022/11/05 09:00:11;;;;;;;5.45;2.55;;;11.50;78.30;;;;;;5020001;28;20077;-80
2022/11/05 09:02:37;;;;;;;7.60;2.83;;;11.70;78.20;;;;;;5003130;28;20152;-80
2022/11/05 09:05:03;;;;;;;4.15;2.75;;;11.80;78.00;;;;;;4979285;28;20057;-79
2022/11/05 09:07:29;;;;;;;3.22;1.95;;;11.90;77.80;;;;;;4999547;28;20089;-80
2022/11/05 09:09:54;;;;;;;7.78;2.70;;;11.90;77.40;;;;;;4997568;28;20035;-81
2022/11/05 09:12:20;;;;;;;8.80;2.20;;;12.00;76.90;;;;;;5006130;28;20109;-81
2022/11/05 09:14:45;;;;;;;4.93;2.67;;;12.10;77.20;;;;;;4999071;28;20036;-80
2022/11/05 09:17:16;;;;;;;4.80;2.58;;;12.20;77.10;;;;;;4995455;28;20377;-81
2022/11/05 09:19:42;;;;;;;4.88;2.00;;;12.40;77.10;;;;;;5008480;28;20022;-81
2022/11/05 09:22:07;;;;;;;6.43;1.90;;;12.60;77.00;;;;;;5016036;28;20057;-80
2022/11/05 09:24:33;;;;;;;7.85;2.38;;;12.70;76.90;;;;;;5015924;28;20072;-79
2022/11/05 09:26:58;;;;;;;4.22;1.88;;;12.70;76.50;;;;;;5005488;28;20026;-79
2022/11/05 09:29:24;;;;;;;5.28;2.03;;;12.70;76.20;;;;;;5006148;28;20662;-79
2022/11/05 09:31:50;;;;;;;7.78;2.25;;;12.50;76.40;;;;;;5001842;28;20397;-81
2022/11/05 09:34:15;;;;;;;5.03;1.80;;;12.40;76.70;;;;;;5006824;28;20056;-80
2022/11/05 09:36:41;;;;;;;4.70;1.58;;;12.40;77.00;;;;;;4985056;28;20022;-80
2022/11/05 09:39:07;;;;;;;5.82;1.85;;;12.30;77.30;;;;;;4996004;28;20022;-81
2022/11/05 09:41:36;;;;;;;7.32;1.95;;;12.40;77.50;;;;;;4978749;28;20517;-81
2022/11/05 09:44:10;;;;;;;4.05;1.80;;;12.40;77.50;;;;;;4978574;28;20507;-80
2022/11/05 09:46:46;;;;;;;9.00;2.67;;;12.50;77.70;;;;;;5001696;28;20493;-80
2022/11/05 09:49:24;;;;;;;7.47;2.10;;;12.70;77.50;;;;;;5013552;28;20109;-80
2022/11/05 09:51:53;;;;;;;4.88;2.00;;;12.90;77.50;;;;;;5007231;28;20085;-79
2022/11/05 09:54:24;;;;;;;5.28;2.25;;;13.00;76.40;;;;;;5015399;28;20018;-79
2022/11/05 09:56:51;;;;;;;6.28;2.22;;;13.10;76.40;;;;;;4992852;28;20116;-78
2022/11/05 09:59:30;;;;;;;5.50;2.53;;;13.10;76.00;;;;;;4985342;28;20048;-80
2022/11/05 10:02:21;;;;;;;5.63;2.35;;;13.20;76.20;;;;;;5006122;28;20037;-80
2022/11/05 10:04:51;;;;;;;4.05;2.03;;;13.20;76.40;;;;;;5006486;28;20026;-80
2022/11/05 10:07:21;;;;;;;5.80;2.45;;;13.30;76.40;;;;;;5009702;28;20088;-80
2022/11/05 10:10:12;;;;;;;7.15;2.08;;;13.30;76.50;;;;;;5026498;28;20026;-82
2022/11/05 10:12:43;;;;;;;6.45;2.35;;;13.30;76.40;;;;;;4992865;28;20206;-84
2022/11/05 10:15:32;;;;;;;5.45;1.90;;;13.40;76.30;;;;;;5015191;28;20026;-91
2022/11/05 10:18:24;;;;;;;4.30;2.05;;;13.50;76.30;;;;;;5014991;28;20022;-84
2022/11/05 10:20:50;;;;;;;7.72;2.13;;;13.50;76.10;;;;;;5003694;28;20065;-84
2022/11/05 10:23:19;;;;;;;12.25;2.20;;;13.50;76.30;;;;;;4999101;28;20129;-83
2022/11/05 10:25:47;;;;;;;7.20;1.92;;;13.50;76.30;;;;;;4995837;28;20041;-80
2022/11/05 10:28:19;;;;;;;7.53;2.08;;;13.70;76.40;;;;;;5014895;28;20101;-80
2022/11/05 10:30:48;;;;;;;3.92;1.80;;;13.80;76.20;;;;;;4996078;28;20058;-80
2022/11/05 10:33:26;;;;;;;6.40;2.20;;;13.90;76.20;;;;;;4997884;28;20018;-81
2022/11/05 10:35:56;;;;;;;6.70;1.95;;;14.00;76.00;;;;;;5000348;28;20090;-84
2022/11/05 10:38:22;;;;;;;9.15;2.75;;;14.10;75.80;;;;;;4996272;28;20024;-91
2022/11/05 10:41:06;;;;;;;5.15;1.55;;;14.20;76.00;;;;;;4978304;28;20098;-83
2022/11/05 10:43:37;;;;;;;6.65;2.50;;;14.10;75.40;;;;;;5003064;28;20030;-88
2022/11/05 10:46:25;;;;;;;4.80;2.13;;;14.00;75.40;;;;;;4978917;28;20030;-86
2022/11/05 10:49:14;;;;;;;6.53;1.55;;;14.10;75.40;;;;;;4984383;28;20033;-87
2022/11/05 10:51:39;;;;;;;7.10;2.30;;;14.20;75.90;;;;;;4981870;28;20513;-87
2022/11/05 10:54:18;;;;;;;5.78;1.98;;;14.20;75.50;;;;;;4983798;28;20139;-88
2022/11/05 10:56:44;;;;;;;3.45;1.08;;;14.30;75.30;;;;;;5005507;28;20029;-90
2022/11/05 10:59:25;;;;;;;5.18;1.83;;;14.30;75.20;;;;;;4992830;28;20034;-86
2022/11/05 11:01:59;;;;;;;4.85;1.80;;;14.40;75.10;;;;;;4991678;28;20113;-87
2022/11/05 11:04:27;;;;;;;3.63;1.63;;;14.30;75.20;;;;;;4995747;28;20034;-87
2022/11/05 11:06:55;;;;;;;5.65;1.60;;;14.30;75.50;;;;;;5001320;28;20022;-90
2022/11/05 11:09:25;;;;;;;4.00;1.50;;;14.40;75.30;;;;;;4999968;28;20038;-86
2022/11/05 11:11:59;;;;;;;7.07;1.67;;;14.50;75.40;;;;;;4993166;28;21148;-85
2022/11/05 11:14:25;;;;;;;1.75;1.25;;;14.70;75.70;;;;;;5009692;28;20524;-85
2022/11/05 11:16:55;;;;;;;3.50;1.35;;;14.90;75.40;;;;;;5000575;28;20108;-86
2022/11/05 11:19:26;;;;;;;2.65;1.00;;;15.00;75.00;;;;;;4989821;28;20033;-85
2022/11/05 11:22:04;;;;;;;4.82;1.40;;;15.00;74.30;;;;;;4990714;28;20018;-86
2022/11/05 11:24:45;;;;;;;4.90;1.25;;;15.00;74.20;;;;;;5000146;28;20113;-86
2022/11/05 11:27:24;;;;;;;5.25;1.65;;;15.00;74.20;;;;;;5011322;28;20053;-87
2022/11/05 11:29:56;;;;;;;4.00;1.77;;;15.00;74.20;;;;;;4981378;28;20033;-85
2022/11/05 11:32:35;;;;;;;3.95;1.15;;;15.00;74.40;;;;;;4991717;28;20117;-86
2022/11/05 11:35:01;;;;;;;7.80;1.55;;;15.10;74.40;;;;;;5017506;28;20041;-87
2022/11/05 11:37:36;;;;;;;5.47;0.90;;;15.10;74.10;;;;;;5009515;28;20031;-88
2022/11/05 11:40:12;;;;;;;4.95;1.00;;;15.10;74.10;;;;;;4981484;28;20037;-90
2022/11/05 11:42:40;;;;;;;5.13;1.20;;;15.10;73.70;;;;;;5008625;28;20079;-87
2022/11/05 11:45:23;;;;;;;2.75;1.20;;;15.00;74.00;;;;;;5006346;28;20042;-86
2022/11/05 11:47:49;;;;;;;4.00;1.23;;;15.00;73.80;;;;;;5009188;28;20665;-88
2022/11/05 11:50:38;;;;;;;7.78;1.67;;;14.90;74.00;;;;;;5000065;28;20033;-88
2022/11/05 11:53:27;;;;;;;2.97;1.20;;;14.90;74.10;;;;;;4995076;28;20053;-87
2022/11/05 11:56:01;;;;;;;6.05;1.10;;;14.90;74.10;;;;;;5006588;28;20036;-87
2022/11/05 11:58:36;;;;;;;2.80;1.33;;;14.80;74.40;;;;;;4983978;28;20061;-87
2022/11/05 12:01:23;;;;;;;6.88;2.50;;;14.80;74.80;;;;;;5016078;28;20050;-87
2022/11/05 12:03:49;;;;;;;4.45;1.88;;;14.80;74.70;;;;;;4998816;28;20117;-87
2022/11/05 12:06:21;;;;;;;3.28;1.80;;;14.70;75.10;;;;;;5006199;28;20072;-86
2022/11/05 12:09:10;;;;;;;7.38;2.33;;;14.60;75.50;;;;;;5000803;28;20022;-89
2022/11/05 12:12:15;;;;;;;5.57;2.00;;;14.60;76.00;;;;;;4998199;28;20048;-88
2022/11/05 12:15:45;;;;;;;10.20;3.25;;;14.50;76.40;;;;;;4989389;28;20092;-77
2022/11/05 12:18:26;;;;;;;3.00;1.77;;;14.40;77.20;;;;;;4934928;29;20028;-79
2022/11/05 12:21:29;;;;;;;3.40;1.90;;;14.40;78.50;;;;;;4948176;28;20460;-81
2022/11/05 12:24:13;;;;;;;7.75;2.67;;;14.30;79.20;;;;;;4987368;28;21028;-89
2022/11/05 12:27:01;;;;;;;5.85;2.42;;;14.40;79.50;;;;;;4992613;28;20019;-85
2022/11/05 12:29:35;;;;;;;16.38;3.70;;;14.30;80.00;;;;;;4999499;28;20033;-93
2022/11/05 12:32:13;;;;;;;3.83;2.17;;;14.30;80.20;;;;;;4986797;28;20471;-86
2022/11/05 12:34:57;;;;;;;5.13;2.10;;;14.40;80.40;;;;;;4998257;28;20018;-85
2022/11/05 12:37:31;;;;;;;5.78;1.80;;;14.40;80.30;;;;;;5016756;28;20018;-84
2022/11/05 12:40:17;;;;;;;3.45;1.50;;;14.30;80.30;;;;;;4999639;28;20028;-90
2022/11/05 12:43:11;;;;;;;6.97;1.95;;;14.40;80.10;;;;;;5001178;28;20168;-80
2022/11/05 12:45:46;;;;;;;4.82;1.90;;;14.40;80.10;;;;;;4994130;28;21144;-84
2022/11/05 12:48:18;;;;;;;4.53;1.30;;;14.50;79.60;;;;;;4997232;28;20034;-90
2022/11/05 12:50:46;;;;;;;7.18;1.70;;;14.50;79.40;;;;;;5008882;28;20038;-86
2022/11/05 12:53:33;;;;;;;3.15;1.05;;;14.50;79.40;;;;;;5007528;28;20038;-85
2022/11/05 12:56:05;;;;;;;7.15;2.65;;;14.60;79.40;;;;;;4997559;28;20027;-86
2022/11/05 12:58:39;;;;;;;3.80;1.50;;;14.50;79.60;;;;;;5016275;28;20440;-90
2022/11/05 13:01:10;;;;;;;4.47;2.30;;;14.60;79.60;;;;;;5000523;28;20026;-89
2022/11/05 13:04:00;;;;;;;3.25;1.50;;;14.60;79.60;;;;;;5017551;28;20109;-90
2022/11/05 13:06:39;;;;;;;6.78;2.08;;;14.70;79.80;;;;;;4999849;28;20116;-81
2022/11/05 13:09:07;;;;;;;3.72;1.65;;;14.70;80.00;;;;;;5001440;28;20527;-87
2022/11/05 13:11:42;;;;;;;2.78;1.30;;;14.70;80.10;;;;;;4997579;28;20040;-81
2022/11/05 13:14:17;;;;;;;4.53;1.52;;;14.80;80.00;;;;;;5013446;28;20488;-85
2022/11/05 13:16:48;;;;;;;4.30;1.90;;;14.80;80.20;;;;;;4999838;28;20014;-87
2022/11/05 13:19:30;;;;;;;5.07;1.60;;;14.80;80.50;;;;;;5016927;28;20026;-82
2022/11/05 13:22:10;;;;;;;3.70;1.35;;;14.80;80.50;;;;;;5016937;28;20033;-84
2022/11/05 13:24:43;;;;;;;;;;;14.80;80.40;;;;;;5002344;28;20084;-81
2022/11/05 13:27:43;;;;;;;6.68;1.63;;;14.80;80.50;;;;;;5007901;28;19913;-79
2022/11/05 13:30:23;;;;;;;7.18;2.13;;;14.80;80.10;;;;;;4994133;28;20034;-89
2022/11/05 13:32:57;;;;;;;;;;;14.80;80.50;;;;;;4999310;28;20112;-89
2022/11/05 13:35:33;;;;;;;4.05;1.60;;;14.70;80.70;;;;;;4996138;28;19906;-88
2022/11/05 13:41:07;;;;;;;7.05;2.13;;;14.70;80.60;;;;;;5008833;28;20040;-89
2022/11/05 13:44:04;;;;;;;6.05;1.60;;;14.60;80.60;;;;;;4996580;28;20026;-88
2022/11/05 13:46:47;;;;;;;4.15;1.98;;;14.60;80.70;;;;;;4990877;28;20563;-88
2022/11/05 13:49:32;;;;;;;2.38;1.60;;;14.50;80.80;;;;;;4988956;28;20026;-89
2022/11/05 13:52:35;;;;;;;6.28;2.10;;;14.50;80.90;;;;;;4994244;28;20026;-89
2022/11/05 13:55:25;;;;;;;6.38;1.50;;;14.50;81.10;;;;;;5009432;28;20393;-89
2022/11/05 13:58:07;;;;;;;6.40;2.03;;;14.50;81.10;;;;;;4997912;28;20029;-89
2022/11/05 14:00:42;;;;;;;3.70;1.60;;;14.40;81.30;;;;;;4995668;28;20049;-81
2022/11/05 14:03:17;;;;;;;3.58;1.65;;;14.40;81.40;;;;;;4998723;28;20035;-83
2022/11/05 14:05:52;;;;;;;4.65;2.00;;;14.40;81.50;;;;;;4979494;28;20033;-84
2022/11/05 14:08:23;;;;;;;3.15;1.95;;;14.30;81.60;;;;;;4977654;28;20034;-82
2022/11/05 14:11:02;;;;;;;4.85;2.10;;;14.40;81.60;;;;;;5005709;28;20439;-85
2022/11/05 14:13:38;;;;;;;1.38;1.20;;;14.40;81.60;;;;;;4998991;28;20030;-91
2022/11/05 14:16:06;;;;;;;4.35;1.77;;;14.30;81.60;;;;;;4994440;28;20037;-87
2022/11/05 14:18:37;;;;;;;4.70;2.35;;;14.40;81.70;;;;;;5012335;28;20053;-84
2022/11/05 14:21:05;;;;;;;6.60;1.88;;;14.30;81.70;;;;;;4996746;28;20444;-84
2022/11/05 14:23:48;;;;;;;3.72;1.83;;;14.40;81.70;;;;;;5001817;28;20045;-90
2022/11/05 14:26:20;;;;;;;4.65;1.63;;;14.40;81.70;;;;;;4996849;28;20743;-91
2022/11/05 14:29:02;;;;;;;7.47;2.28;;;14.40;81.70;;;;;;4985139;28;20081;-92
2022/11/05 14:31:31;;;;;;;3.88;2.38;;;14.50;81.70;;;;;;5002432;28;20177;-93
2022/11/05 14:34:15;;;;;;;3.90;1.92;;;14.50;81.60;;;;;;5001465;28;20026;-87
2022/11/05 14:37:02;;;;;;;3.08;1.58;;;14.50;81.60;;;;;;5000619;28;20105;-90
2022/11/05 14:39:30;;;;;;;5.38;2.50;;;14.50;81.70;;;;;;5018155;28;20061;-91
2022/11/05 14:42:00;;;;;;;4.78;2.10;;;14.50;81.80;;;;;;4989684;28;20029;-88
2022/11/05 14:44:27;;;;;;;6.72;2.00;;;14.40;81.80;;;;;;5000012;28;20523;-85
2022/11/05 14:47:05;;;;;;;5.28;2.42;;;14.40;81.90;;;;;;5005738;28;20031;-88
2022/11/05 17:48:31;;;;;;;18.00;8.43;;;14.20;82.50;;;;;;5432723;23;20217;-78
2022/11/05 17:51:08;;;;;;;18.67;7.95;;;14.20;82.40;;;;;;4942473;28;20070;-83
2022/11/05 17:53:34;;;;;;;16.90;7.85;;;14.20;82.30;;;;;;4975219;28;20047;-84
2022/11/05 17:56:00;;;;;;;10.43;5.82;;;14.20;82.20;;;;;;4953147;28;20034;-78
2022/11/05 17:58:26;;;;;;;18.52;8.43;;;14.20;82.10;;;;;;4973883;28;20038;-79
2022/11/05 18:00:51;;;;;;;16.90;7.28;;;14.20;81.90;;;;;;4956338;28;20152;-84
2022/11/05 18:03:17;;;;;;;14.73;6.43;;;14.20;81.80;;;;;;4962328;23;20070;-79
2022/11/05 18:05:43;;;;;;;17.85;8.25;;;14.20;81.80;;;;;;4977027;28;20031;-83
2022/11/05 18:08:11;;;;;;;11.65;5.53;;;14.20;81.70;;;;;;4975469;28;20379;-79
2022/11/05 18:10:38;;;;;;;19.27;10.02;;;14.20;81.70;;;;;;4973606;28;20031;-82
2022/11/05 18:13:03;;;;;;;18.02;6.93;;;14.20;81.60;;;;;;4958478;28;20061;-84
2022/11/05 18:15:29;;;;;;;10.93;5.80;;;14.20;81.50;;;;;;4954655;28;20023;-82
2022/11/05 18:17:55;;;;;;;15.98;6.20;;;14.20;81.50;;;;;;4947424;28;20022;-79
2022/11/05 18:20:20;;;;;;;11.48;5.35;;;14.20;81.30;;;;;;4972642;28;20027;-86
2022/11/05 18:22:49;;;;;;;7.68;3.70;;;14.20;81.20;;;;;;4974509;28;20033;-81
2022/11/05 18:25:16;;;;;;;8.52;6.10;;;14.20;81.20;;;;;;4972556;28;20113;-86
2022/11/05 18:27:42;;;;;;;8.90;5.13;;;14.20;81.20;;;;;;4954376;28;20123;-85
2022/11/05 18:30:09;;;;;;;11.05;5.88;;;14.20;81.20;;;;;;4956503;28;20118;-90
2022/11/05 18:32:35;;;;;;;12.18;5.28;;;14.20;81.10;;;;;;4957567;29;20122;-88
2022/11/05 18:35:01;;;;;;;11.13;6.15;;;14.20;81.00;;;;;;4954862;28;20055;-87
2022/11/05 18:37:27;;;;;;;11.10;4.00;;;14.20;81.00;;;;;;4956589;28;20035;-84
2022/11/05 18:39:52;;;;;;;11.55;4.53;;;14.20;81.00;;;;;;4954119;29;20028;-82
2022/11/05 18:42:21;;;;;;;6.05;4.30;;;14.10;80.90;;;;;;4954562;29;20034;-84
2022/11/05 18:44:47;;;;;;;11.45;3.90;;;14.10;81.00;;;;;;4958678;28;20118;-79
2022/11/05 18:47:13;;;;;;;7.93;3.97;;;14.10;81.00;;;;;;4967382;28;20126;-84
2022/11/05 18:49:39;;;;;;;11.95;3.97;;;14.10;81.00;;;;;;4994441;28;20122;-84
2022/11/05 18:52:05;;;;;;;11.20;3.83;;;14.20;81.00;;;;;;4964847;28;20047;-84
2022/11/05 18:54:30;;;;;;;8.63;3.72;;;14.10;80.80;;;;;;4957166;29;20027;-87
2022/11/05 18:56:56;;;;;;;9.35;3.42;;;14.10;80.90;;;;;;4957512;28;20027;-82
2022/11/05 18:59:25;;;;;;;3.88;2.60;;;14.10;80.70;;;;;;4958542;28;20030;-79
2022/11/05 19:01:51;;;;;;;11.63;3.72;;;14.10;80.80;;;;;;4967385;28;20042;-77
2022/11/05 19:04:17;;;;;;;16.95;7.40;;;14.00;80.60;;;;;;4976764;28;20044;-81
2022/11/05 19:06:43;;;;;;;11.23;4.80;;;14.00;80.60;;;;;;4955648;29;20035;-80
2022/11/05 19:09:10;;;;;;;7.75;4.93;;;14.00;80.60;;;;;;4955996;28;20030;-86
2022/11/05 19:11:37;;;;;;;8.93;4.72;;;14.00;80.80;;;;;;4986145;28;20031;-80
2022/11/05 19:14:03;;;;;;;12.80;6.75;;;14.00;80.80;;;;;;4966596;28;20054;-82
2022/11/05 19:16:34;;;;;;;16.52;8.60;;;14.00;80.40;;;;;;4962856;28;20030;-84
2022/11/05 19:19:01;;;;;;;12.45;7.10;;;14.00;80.80;;;;;;4979895;28;20029;-87
2022/11/05 19:21:28;;;;;;;11.02;4.95;;;14.00;80.70;;;;;;4977830;28;20055;-83
2022/11/05 19:23:58;;;;;;;9.98;4.05;;;14.00;80.70;;;;;;4977379;28;20038;-79
2022/11/05 19:26:25;;;;;;;12.30;4.53;;;14.00;80.70;;;;;;4954531;28;20702;-82
2022/11/05 19:28:51;;;;;;;10.48;3.67;;;14.00;80.80;;;;;;4964518;28;20390;-84
2022/11/05 19:31:20;;;;;;;12.27;6.47;;;14.00;80.70;;;;;;4959282;28;20086;-85
2022/11/05 19:33:52;;;;;;;14.07;4.88;;;14.00;80.80;;;;;;4973771;28;20126;-79
2022/11/05 19:36:20;;;;;;;10.63;5.43;;;14.00;80.80;;;;;;4957290;28;20038;-85
2022/11/05 19:38:48;;;;;;;8.75;4.18;;;13.90;80.90;;;;;;4959606;28;20022;-86
2022/11/05 19:41:14;;;;;;;11.27;5.50;;;13.90;81.00;;;;;;4978735;28;20030;-84
2022/11/05 19:43:41;;;;;;;12.50;4.32;;;13.90;80.90;;;;;;4962675;28;20077;-84
2022/11/05 19:46:13;;;;;;;10.02;5.85;;;13.90;80.80;;;;;;4979405;28;20066;-85
2022/11/05 19:48:39;;;;;;;10.45;4.35;;;13.90;80.80;;;;;;4958828;28;20114;-85
2022/11/05 19:51:07;;;;;;;16.38;5.68;;;13.90;81.00;;;;;;4959810;28;20123;-83
2022/11/05 19:53:34;;;;;;;5.32;3.97;;;14.00;80.90;;;;;;4959715;28;20035;-83
2022/11/05 19:56:37;;;;;;;;;;;;;;;;;;;;;
2022/11/05 19:59:04;;;;;;;7.57;4.22;;;14.00;80.90;;;;;;4969608;28;20027;-85
2022/11/05 20:01:30;;;;;;;13.15;6.65;;;14.00;81.00;;;;;;4959736;28;20031;-87
2022/11/05 20:03:57;;;;;;;20.42;7.70;;;14.00;80.80;;;;;;4960922;28;20046;-88
2022/11/05 20:06:28;;;;;;;10.60;6.30;;;14.00;80.90;;;;;;4977266;28;20499;-85
2022/11/05 20:08:54;;;;;;;;;;;14.00;80.90;;;;;;4977086;28;20038;-85
2022/11/05 20:11:20;;;;;;;13.30;4.28;;;14.00;80.90;;;;;;4976102;28;19960;-87
2022/11/05 20:13:52;;;;;;;10.60;4.43;;;14.00;80.80;;;;;;4977540;28;20031;-86
2022/11/05 20:16:26;;;;;;;7.65;3.30;;;14.00;80.70;;;;;;4975170;28;20078;-88
2022/11/05 20:19:05;;;;;;;;;;;;;;;;;;;;;
2022/11/05 20:21:32;;;;;;;5.30;3.50;;;13.90;80.90;;;;;;4978572;28;20453;-86
2022/11/05 20:23:58;;;;;;;6.35;3.38;;;13.90;81.00;;;;;;4976664;28;20086;-84
2022/11/05 20:26:24;;;;;;;11.25;3.15;;;13.80;81.20;;;;;;4959591;28;20030;-83
2022/11/05 20:28:50;;;;;;;14.65;3.75;;;13.80;81.20;;;;;;4957327;28;20035;-86
2022/11/05 20:31:17;;;;;;;10.55;4.63;;;13.80;81.40;;;;;;4972734;28;20072;-86
2022/11/05 20:33:44;;;;;;;14.40;3.92;;;13.80;81.50;;;;;;4959774;28;20034;-84
2022/11/05 20:36:27;;;;;;;5.20;3.33;;;13.90;81.40;;;;;;4977473;28;20027;-87
2022/11/05 20:38:55;;;;;;;8.13;4.97;;;13.80;81.50;;;;;;4961821;28;20031;-89
2022/11/05 20:41:21;;;;;;;7.60;3.03;;;13.80;81.60;;;;;;4974802;28;20027;-87
2022/11/05 20:43:47;;;;;;;11.20;4.78;;;13.80;81.70;;;;;;4977214;28;20485;-88
2022/11/05 20:46:15;;;;;;;8.50;3.53;;;13.80;81.90;;;;;;4956382;28;20063;-85
2022/11/05 20:48:42;;;;;;;10.95;3.88;;;13.80;81.90;;;;;;4974903;28;20035;-84
2022/11/05 20:51:11;;;;;;;7.00;3.42;;;13.80;81.70;;;;;;4978135;28;20090;-83
2022/11/05 20:53:37;;;;;;;5.32;3.15;;;13.80;81.80;;;;;;4976024;28;20039;-85
2022/11/05 20:56:03;;;;;;;9.65;3.50;;;13.80;81.80;;;;;;4978484;28;20023;-85
2022/11/05 20:58:31;;;;;;;7.82;3.40;;;13.80;81.80;;;;;;4955679;28;20547;-84
2022/11/05 21:00:57;;;;;;;11.85;3.72;;;13.80;81.80;;;;;;4958712;28;20035;-84
2022/11/05 21:03:23;;;;;;;14.38;3.60;;;13.80;81.90;;;;;;4976217;28;20424;-86
2022/11/05 21:05:53;;;;;;;9.60;3.55;;;13.80;82.00;;;;;;4957739;28;20053;-83
2022/11/05 21:08:20;;;;;;;9.77;3.70;;;13.70;82.00;;;;;;4971748;28;20050;-82
2022/11/05 21:10:49;;;;;;;9.57;3.78;;;13.70;82.20;;;;;;4972337;28;20023;-81
2022/11/05 21:13:14;;;;;;;8.52;3.45;;;13.70;82.30;;;;;;4952719;28;20041;-82
2022/11/05 21:15:48;;;;;;;9.25;4.55;;;13.70;82.30;;;;;;4972676;28;20019;-82
2022/11/05 21:18:13;;;;;;;7.57;3.63;;;13.80;82.30;;;;;;4972385;28;20023;-82
2022/11/05 21:20:39;;;;;;;7.80;3.03;;;13.80;82.30;;;;;;4974268;28;20027;-81
2022/11/05 21:23:05;;;;;;;10.88;3.88;;;13.80;82.20;;;;;;4975722;28;20034;-82
2022/11/05 21:25:30;;;;;;;5.28;2.90;;;13.80;82.10;;;;;;4983211;28;20563;-82
2022/11/05 21:27:57;;;;;;;9.65;3.28;;;13.80;82.10;;;;;;4980452;28;20030;-82
2022/11/05 21:30:22;;;;;;;8.23;2.95;;;13.80;82.20;;;;;;4979170;28;20031;-82
2022/11/05 21:32:48;;;;;;;7.90;3.15;;;13.80;82.20;;;;;;4984386;28;20030;-82
2022/11/05 21:35:13;;;;;;;6.60;3.35;;;13.80;82.20;;;;;;4984524;28;20423;-82
2022/11/05 21:37:39;;;;;;;9.18;2.97;;;13.80;82.20;;;;;;4990231;28;20027;-82
2022/11/05 21:40:05;;;;;;;5.80;3.03;;;13.80;82.20;;;;;;4988087;28;20027;-82